createdAt,value
2018-12-18T00:01:50.347Z,54.65
2018-12-18T00:04:27.714Z,54.98
2018-12-18T00:07:03.307Z,55.25
2018-12-18T00:09:38.025Z,50.50
2018-12-18T00:12:12.539Z,49.67
2018-12-18T00:14:47.549Z,53.40
2018-12-18T00:17:22.705Z,54.18
2018-12-18T00:19:57.349Z,51.58
2018-12-18T00:22:32.479Z,53.20
2018-12-18T00:25:06.884Z,45.12
2018-12-18T00:27:41.396Z,47.27
2018-12-18T00:30:15.959Z,50.95
2018-12-18T00:32:50.475Z,60.08
2018-12-18T00:35:24.922Z,46.88
2018-12-18T00:37:59.411Z,55.40
2018-12-18T00:40:34.860Z,48.13
2018-12-18T00:43:09.595Z,59.25
2018-12-18T00:45:44.324Z,45.03
2018-12-18T00:48:18.866Z,53.23
2018-12-18T00:50:53.335Z,47.17
2018-12-18T00:53:27.903Z,56.18
2018-12-18T00:56:02.535Z,56.53
2018-12-18T00:58:38.233Z,66.45
2018-12-18T01:01:12.719Z,53.10
2018-12-18T01:03:52.764Z,48.98
2018-12-18T01:06:28.315Z,55.67
2018-12-18T01:09:08.763Z,52.50
2018-12-18T01:11:48.539Z,47.78
2018-12-18T01:14:22.997Z,53.78
2018-12-18T01:16:58.045Z,49.27
2018-12-18T01:19:33.823Z,50.45
2018-12-18T01:22:08.726Z,52.65
2018-12-18T01:24:43.261Z,44.67
2018-12-18T01:27:18.339Z,50.40
2018-12-18T01:29:52.847Z,55.63
2018-12-18T01:32:27.198Z,47.70
2018-12-18T01:35:01.770Z,49.58
2018-12-18T01:37:36.447Z,59.25
2018-12-18T01:40:10.917Z,52.75
2018-12-18T01:42:45.313Z,47.65
2018-12-18T01:45:19.954Z,46.60
2018-12-18T01:47:55.991Z,48.48
2018-12-18T01:50:30.366Z,48.92
2018-12-18T01:53:04.795Z,44.70
2018-12-18T01:58:18.624Z,49.35
2018-12-18T02:00:53.299Z,46.58
2018-12-18T02:03:27.659Z,51.95
2018-12-18T02:06:02.161Z,46.73
2018-12-18T02:08:36.639Z,45.70
2018-12-18T02:11:10.861Z,43.52
2018-12-18T02:13:45.354Z,48.90
2018-12-18T02:16:19.967Z,47.93
2018-12-18T02:18:56.145Z,44.95
2018-12-18T02:21:30.463Z,48.30
2018-12-18T02:24:05.583Z,37.63
2018-12-18T02:26:41.506Z,43.15
2018-12-18T02:29:15.867Z,45.58
2018-12-18T02:31:50.697Z,40.52
2018-12-18T02:34:24.951Z,44.90
2018-12-18T02:36:59.443Z,48.50
2018-12-18T02:39:33.859Z,41.37
2018-12-18T02:42:08.263Z,48.33
2018-12-18T02:44:42.732Z,43.48
2018-12-18T02:47:17.149Z,43.87
2018-12-18T02:49:51.508Z,44.55
2018-12-18T02:52:25.915Z,42.00
2018-12-18T02:55:00.302Z,42.13
2018-12-18T02:57:34.716Z,43.90
2018-12-18T03:00:10.097Z,39.67
2018-12-18T03:02:44.692Z,42.60
2018-12-18T03:05:19.907Z,39.78
2018-12-18T03:07:54.523Z,41.65
2018-12-18T03:10:29.269Z,39.10
2018-12-18T03:13:03.981Z,40.88
2018-12-18T03:15:40.316Z,57.43
2018-12-18T03:18:14.692Z,38.63
2018-12-18T03:20:49.056Z,41.68
2018-12-18T03:23:23.218Z,35.45
2018-12-18T03:25:57.970Z,38.80
2018-12-18T03:28:32.488Z,42.43
2018-12-18T03:31:08.840Z,38.85
2018-12-18T03:33:43.277Z,38.08
2018-12-18T03:36:21.207Z,36.45
2018-12-18T03:38:55.978Z,36.48
2018-12-18T03:41:30.621Z,38.17
2018-12-18T03:44:05.232Z,36.03
2018-12-18T03:46:40.473Z,41.15
2018-12-18T03:49:15.215Z,37.13
2018-12-18T03:51:50.020Z,44.58
2018-12-18T03:54:24.464Z,35.55
2018-12-18T03:56:58.954Z,38.08
2018-12-18T03:59:33.625Z,43.23
2018-12-18T04:02:08.402Z,39.55
2018-12-18T04:04:44.858Z,33.18
2018-12-18T04:07:19.602Z,34.63
2018-12-18T04:09:54.544Z,37.13
2018-12-18T04:12:30.113Z,39.92
2018-12-18T04:15:05.551Z,37.20
2018-12-18T04:17:39.974Z,35.83
2018-12-18T04:20:18.385Z,31.30
2018-12-18T04:22:54.266Z,41.20
2018-12-18T04:25:28.565Z,40.20
2018-12-18T04:28:03.687Z,33.70
2018-12-18T04:30:42.437Z,35.68
2018-12-18T04:33:17.175Z,32.75
2018-12-18T04:35:51.469Z,36.40
2018-12-18T04:38:25.929Z,35.45
2018-12-18T04:41:01.563Z,39.50
2018-12-18T04:43:36.794Z,44.27
2018-12-18T04:46:12.864Z,43.85
2018-12-18T04:48:47.688Z,44.58
2018-12-18T04:51:32.345Z,44.10
2018-12-18T04:54:09.868Z,50.35
2018-12-18T04:56:45.011Z,47.43
2018-12-18T04:59:19.536Z,45.23
2018-12-18T05:01:54.338Z,48.05
2018-12-18T05:04:28.947Z,38.42
2018-12-18T05:07:03.632Z,45.38
2018-12-18T05:09:38.479Z,42.38
2018-12-18T05:12:12.939Z,39.23
2018-12-18T05:14:48.772Z,50.45
2018-12-18T05:17:23.422Z,40.65
2018-12-18T05:19:58.569Z,41.10
2018-12-18T05:22:33.595Z,37.23
2018-12-18T05:25:08.562Z,40.58
2018-12-18T05:27:43.203Z,37.85
2018-12-18T05:30:18.492Z,36.45
2018-12-18T05:32:53.177Z,37.73
2018-12-18T05:35:29.044Z,36.28
2018-12-18T05:38:05.250Z,36.45
2018-12-18T05:40:40.367Z,47.08
2018-12-18T05:43:15.913Z,37.30
2018-12-18T05:45:50.597Z,41.00
2018-12-18T05:51:05.627Z,37.55
2018-12-18T05:53:41.456Z,40.25
2018-12-18T05:56:16.014Z,39.18
2018-12-18T05:58:51.662Z,36.58
2018-12-18T06:01:26.275Z,33.63
2018-12-18T06:04:01.786Z,33.00
2018-12-18T06:06:37.793Z,29.45
2018-12-18T06:09:13.342Z,41.70
2018-12-18T06:12:03.159Z,35.40
2018-12-18T06:14:49.356Z,35.98
2018-12-18T06:17:24.921Z,31.27
2018-12-18T06:20:02.039Z,30.55
2018-12-18T06:22:45.187Z,32.35
2018-12-18T06:25:23.116Z,32.55
2018-12-18T06:27:57.909Z,29.95
2018-12-18T06:30:32.217Z,43.10
2018-12-18T06:33:06.651Z,31.05
2018-12-18T06:35:41.880Z,32.35
2018-12-18T06:38:16.883Z,31.48
2018-12-18T06:40:51.322Z,33.78
2018-12-18T06:43:30.106Z,31.93
2018-12-18T06:46:05.667Z,31.55
2018-12-18T06:48:41.045Z,32.25
2018-12-18T06:51:15.991Z,34.40
2018-12-18T06:53:50.545Z,34.70
2018-12-18T06:56:25.079Z,26.17
2018-12-18T06:58:59.463Z,32.23
2018-12-18T07:01:34.077Z,31.52
2018-12-18T07:04:10.754Z,34.27
2018-12-18T07:07:07.871Z,29.10
2018-12-18T07:09:43.260Z,28.10
2018-12-18T07:12:22.343Z,27.70
2018-12-18T07:14:58.490Z,31.50
2018-12-18T07:17:35.179Z,27.75
2018-12-18T07:20:11.332Z,24.47
2018-12-18T07:22:47.182Z,27.67
2018-12-18T07:25:22.797Z,30.37
2018-12-18T07:28:00.529Z,31.27
2018-12-18T07:30:42.484Z,21.75
2018-12-18T07:33:19.777Z,28.57
2018-12-18T07:35:57.209Z,23.52
2018-12-18T07:38:32.294Z,30.75
2018-12-18T07:41:07.491Z,23.07
2018-12-18T07:43:43.074Z,25.70
2018-12-18T07:46:17.503Z,26.27
2018-12-18T07:48:51.938Z,23.12
2018-12-18T07:51:29.386Z,32.28
2018-12-18T07:54:04.705Z,29.95
2018-12-18T07:56:40.324Z,34.05
2018-12-18T07:59:17.021Z,27.02
2018-12-18T08:01:51.412Z,30.30
2018-12-18T08:04:27.771Z,23.80
2018-12-18T08:07:07.216Z,20.10
2018-12-18T08:09:41.553Z,32.25
2018-12-18T08:12:20.000Z,25.90
2018-12-18T08:15:00.321Z,20.60
2018-12-18T08:17:35.346Z,20.40
2018-12-18T08:20:09.969Z,20.82
2018-12-18T08:22:44.494Z,26.80
2018-12-18T08:25:27.742Z,26.97
2018-12-18T08:28:10.129Z,29.18
2018-12-18T08:30:45.880Z,24.55
2018-12-18T08:33:20.300Z,24.23
2018-12-18T08:36:01.595Z,22.20
2018-12-18T08:38:37.299Z,21.20
2018-12-18T08:41:12.976Z,24.05
2018-12-18T08:43:53.866Z,38.17
2018-12-18T08:46:34.625Z,21.17
2018-12-18T08:49:14.250Z,21.55
2018-12-18T08:51:49.022Z,18.37
2018-12-18T08:54:24.226Z,22.20
2018-12-18T08:56:59.885Z,21.77
2018-12-18T08:59:34.355Z,19.82
2018-12-18T09:02:08.969Z,29.98
2018-12-18T09:04:43.497Z,18.75
2018-12-18T09:07:17.868Z,20.32
2018-12-18T09:09:54.395Z,22.32
2018-12-18T09:12:28.789Z,18.73
2018-12-18T09:15:07.471Z,27.00
2018-12-18T09:17:50.139Z,19.80
2018-12-18T09:20:24.841Z,21.30
2018-12-18T09:22:59.322Z,17.48
2018-12-18T09:25:38.393Z,18.52
2018-12-18T09:28:13.006Z,18.82
2018-12-18T09:30:48.604Z,17.10
2018-12-18T09:33:22.983Z,16.05
2018-12-18T09:35:59.095Z,16.77
2018-12-18T09:38:38.862Z,15.88
2018-12-18T09:41:19.087Z,16.87
2018-12-18T09:43:59.257Z,22.45
2018-12-18T09:46:33.624Z,19.42
2018-12-18T09:51:47.007Z,19.12
2018-12-18T09:54:23.415Z,14.33
2018-12-18T09:57:07.367Z,14.90
2018-12-18T09:59:44.176Z,14.05
2018-12-18T10:02:18.886Z,15.98
2018-12-18T10:04:53.490Z,13.55
2018-12-18T10:07:28.406Z,13.95
2018-12-18T10:10:02.814Z,13.60
2018-12-18T10:12:46.338Z,13.08
2018-12-18T10:15:20.626Z,15.08
2018-12-18T10:17:55.019Z,15.63
2018-12-18T10:20:29.579Z,13.55
2018-12-18T10:23:03.966Z,14.75
2018-12-18T10:25:38.357Z,12.95
2018-12-18T10:28:12.658Z,16.05
2018-12-18T10:30:55.202Z,13.20
2018-12-18T10:33:29.581Z,15.80
2018-12-18T10:36:04.304Z,11.65
2018-12-18T10:38:38.554Z,15.98
2018-12-18T10:41:13.083Z,12.20
2018-12-18T10:43:47.482Z,11.65
2018-12-18T10:46:22.668Z,11.90
2018-12-18T10:48:57.151Z,15.60
2018-12-18T10:51:31.640Z,13.13
2018-12-18T10:54:06.060Z,11.83
2018-12-18T10:56:40.532Z,13.95
2018-12-18T10:59:15.037Z,12.98
2018-12-18T11:01:50.187Z,13.22
2018-12-18T11:04:25.823Z,10.28
2018-12-18T11:07:00.699Z,11.65
2018-12-18T11:09:35.100Z,11.50
2018-12-18T11:12:09.353Z,14.07
2018-12-18T11:14:43.833Z,13.43
2018-12-18T11:17:18.138Z,11.60
2018-12-18T11:19:52.670Z,10.95
2018-12-18T11:22:27.167Z,11.40
2018-12-18T11:25:01.577Z,14.78
2018-12-18T11:27:35.949Z,14.45
2018-12-18T11:30:10.442Z,12.93
2018-12-18T11:32:44.903Z,16.10
2018-12-18T11:35:19.210Z,12.78
2018-12-18T11:37:53.606Z,9.58
2018-12-18T11:40:29.007Z,10.95
2018-12-18T11:43:03.405Z,9.95
2018-12-18T11:45:37.799Z,9.60
2018-12-18T11:48:12.007Z,7.20
2018-12-18T11:50:47.409Z,10.30
2018-12-18T11:53:21.896Z,11.33
2018-12-18T11:55:56.285Z,10.68
2018-12-18T11:58:31.542Z,9.35
2018-12-18T12:01:06.100Z,12.65
2018-12-18T12:03:40.545Z,8.80
2018-12-18T12:06:15.006Z,8.73
2018-12-18T12:08:49.508Z,6.28
2018-12-18T12:11:23.836Z,11.53
2018-12-18T12:13:58.206Z,11.73
2018-12-18T12:16:35.128Z,7.55
2018-12-18T12:19:17.980Z,12.03
2018-12-18T12:21:52.393Z,14.13
2018-12-18T12:24:26.768Z,15.50
2018-12-18T12:27:06.767Z,12.05
2018-12-18T12:29:41.768Z,17.07
2018-12-18T12:32:16.223Z,9.10
2018-12-18T12:34:50.702Z,8.40
2018-12-18T12:37:27.209Z,10.72
2018-12-18T12:40:01.468Z,14.73
2018-12-18T12:42:35.992Z,9.28
2018-12-18T12:45:10.418Z,7.40
2018-12-18T12:47:48.691Z,10.80
2018-12-18T12:50:23.301Z,12.90
2018-12-18T12:52:57.777Z,7.05
2018-12-18T12:55:32.082Z,9.38
2018-12-18T12:58:06.651Z,8.73
2018-12-18T13:00:40.840Z,7.00
2018-12-18T13:03:15.384Z,10.40
2018-12-18T13:05:49.974Z,7.22
2018-12-18T13:08:24.384Z,8.73
2018-12-18T13:10:58.678Z,7.72
2018-12-18T13:13:33.784Z,7.80
2018-12-18T13:16:08.284Z,12.13
2018-12-18T13:18:42.682Z,8.23
2018-12-18T13:21:17.199Z,6.10
2018-12-18T13:23:51.938Z,9.03
2018-12-18T13:26:26.541Z,11.05
2018-12-18T13:29:01.119Z,11.18
2018-12-18T13:31:35.482Z,5.97
2018-12-18T13:34:09.797Z,10.35
2018-12-18T13:36:44.746Z,6.42
2018-12-18T13:39:19.227Z,7.28
2018-12-18T13:41:53.706Z,6.22
2018-12-18T13:44:28.006Z,7.25
2018-12-18T13:47:02.664Z,7.67
2018-12-18T13:49:37.291Z,6.67
2018-12-18T13:52:11.549Z,10.95
2018-12-18T13:54:45.898Z,8.25
2018-12-18T13:57:20.291Z,6.17
2018-12-18T13:59:54.635Z,7.92
2018-12-18T14:02:28.959Z,6.45
2018-12-18T14:05:03.768Z,16.90
2018-12-18T14:07:38.315Z,6.85
2018-12-18T14:10:12.655Z,5.03
2018-12-18T14:12:52.506Z,6.65
2018-12-18T14:15:26.967Z,6.22
2018-12-18T14:18:01.276Z,6.62
2018-12-18T14:20:35.526Z,9.93
2018-12-18T14:23:09.955Z,7.62
2018-12-18T14:25:44.280Z,8.00
2018-12-18T14:28:18.847Z,6.85
2018-12-18T14:30:54.223Z,8.03
2018-12-18T14:33:28.675Z,5.40
2018-12-18T14:36:03.025Z,6.20
2018-12-18T14:38:38.073Z,5.00
2018-12-18T14:41:12.761Z,3.90
2018-12-18T14:43:47.115Z,9.33
2018-12-18T14:46:21.382Z,8.38
2018-12-18T14:48:55.618Z,6.37
2018-12-18T14:51:30.053Z,6.75
2018-12-18T14:54:05.079Z,7.42
2018-12-18T14:56:39.879Z,11.20
2018-12-18T14:59:14.228Z,12.07
2018-12-18T15:01:48.734Z,13.72
2018-12-18T15:04:23.811Z,4.53
2018-12-18T15:07:02.826Z,5.78
2018-12-18T15:09:34.416Z,5.17
2018-12-18T15:12:08.866Z,5.50
2018-12-18T15:14:43.393Z,20.72
2018-12-18T15:17:17.714Z,7.58
2018-12-18T15:19:52.008Z,4.35
2018-12-18T15:22:26.396Z,9.13
2018-12-18T15:25:00.771Z,5.33
2018-12-18T15:27:35.296Z,5.05
2018-12-18T15:30:10.637Z,11.08
2018-12-18T15:32:45.127Z,9.90
2018-12-18T15:35:19.673Z,7.12
2018-12-18T15:37:54.070Z,8.30
2018-12-18T15:40:28.597Z,6.17
2018-12-18T15:43:02.872Z,8.48
2018-12-18T15:45:37.310Z,10.35
2018-12-18T15:48:12.358Z,11.93
2018-12-18T15:50:47.320Z,5.62
2018-12-18T15:53:21.795Z,13.38
2018-12-18T15:55:56.754Z,6.58
2018-12-18T15:58:31.494Z,7.20
2018-12-18T16:01:06.025Z,5.15
2018-12-18T16:03:41.355Z,7.03
2018-12-18T16:06:15.724Z,8.18
2018-12-18T16:08:50.008Z,10.95
2018-12-18T16:11:25.271Z,11.65
2018-12-18T16:13:59.631Z,8.98
2018-12-18T16:16:34.182Z,8.10
2018-12-18T16:19:08.868Z,9.98
2018-12-18T16:21:43.422Z,7.62
2018-12-18T16:24:19.064Z,7.75
2018-12-18T16:26:53.299Z,7.60
2018-12-18T16:29:28.923Z,7.80
2018-12-18T16:32:03.986Z,6.42
2018-12-18T16:34:38.634Z,10.93
2018-12-18T16:37:13.080Z,8.20
2018-12-18T16:39:47.735Z,19.90
2018-12-18T16:42:22.387Z,8.03
2018-12-18T16:44:56.926Z,10.68
2018-12-18T16:47:31.476Z,12.25
2018-12-18T16:50:06.368Z,8.65
2018-12-18T16:52:41.038Z,11.85
2018-12-18T16:55:15.568Z,11.95
2018-12-18T16:57:50.272Z,9.33
2018-12-18T17:00:24.990Z,12.28
2018-12-18T17:03:00.807Z,12.28
2018-12-18T17:05:35.128Z,17.17
2018-12-18T17:08:09.502Z,13.03
2018-12-18T17:10:46.670Z,11.33
2018-12-18T17:13:22.002Z,12.28
2018-12-18T17:15:56.279Z,13.38
2018-12-18T17:18:30.715Z,13.18
2018-12-18T17:21:05.590Z,11.12
2018-12-18T17:23:40.104Z,12.18
2018-12-18T17:26:15.682Z,13.45
2018-12-18T17:28:51.970Z,12.30
2018-12-18T17:31:27.009Z,11.85
2018-12-18T17:34:01.759Z,13.03
2018-12-18T17:36:36.957Z,13.65
2018-12-18T17:39:11.448Z,12.40
2018-12-18T17:41:48.227Z,16.65
2018-12-18T17:44:22.546Z,17.25
2018-12-18T17:46:58.499Z,12.00
2018-12-18T17:49:32.951Z,14.60
2018-12-18T17:52:08.436Z,19.27
2018-12-18T17:54:42.758Z,13.43
2018-12-18T17:57:19.943Z,13.70
2018-12-18T17:59:58.083Z,15.13
2018-12-18T18:02:32.942Z,13.55
2018-12-18T18:05:09.800Z,16.12
2018-12-18T18:07:44.414Z,17.73
2018-12-18T18:10:18.837Z,20.27
2018-12-18T18:13:03.457Z,18.35
2018-12-18T18:18:24.477Z,19.75
2018-12-18T18:21:02.621Z,18.45
2018-12-18T18:23:41.871Z,17.62
2018-12-18T18:28:55.798Z,22.58
2018-12-18T18:31:31.191Z,19.77
2018-12-18T18:34:05.668Z,22.00
2018-12-18T18:36:40.643Z,13.05
2018-12-18T18:39:15.599Z,14.03
2018-12-18T18:41:49.982Z,17.67
2018-12-18T18:44:24.475Z,14.93
2018-12-18T18:46:58.815Z,12.73
2018-12-18T18:49:33.706Z,15.08
2018-12-18T18:52:08.139Z,13.70
2018-12-18T18:57:21.592Z,14.25
2018-12-18T18:59:57.459Z,20.12
2018-12-18T19:02:31.779Z,15.53
2018-12-18T19:05:07.876Z,14.80
2018-12-18T19:07:42.151Z,18.90
2018-12-18T19:10:17.277Z,21.02
2018-12-18T19:12:56.236Z,17.82
2018-12-18T19:15:30.532Z,13.58
2018-12-18T19:18:10.735Z,12.58
2018-12-18T19:20:49.003Z,14.13
2018-12-18T19:23:25.702Z,16.73
2018-12-18T19:26:00.825Z,13.30
2018-12-18T19:28:36.126Z,14.10
2018-12-18T19:31:13.908Z,13.80
2018-12-18T19:33:48.387Z,14.75
2018-12-18T19:36:27.449Z,14.47
2018-12-18T19:39:08.766Z,16.32
2018-12-18T19:41:48.567Z,16.20
2018-12-18T19:44:34.726Z,18.52
2018-12-18T19:47:13.717Z,13.03
2018-12-18T19:49:48.791Z,15.40
2018-12-18T19:52:31.864Z,15.98
2018-12-18T19:55:18.066Z,12.73
2018-12-18T20:06:24.662Z,13.72
2018-12-18T20:28:50.993Z,10.80
2018-12-18T20:31:31.787Z,10.95
2018-12-18T20:34:07.009Z,10.30
2018-12-18T20:36:43.131Z,9.10
2018-12-18T20:39:19.182Z,11.20
2018-12-18T20:41:56.352Z,10.85
2018-12-18T20:44:39.431Z,10.48
2018-12-18T20:47:18.561Z,11.93
2018-12-18T20:55:58.439Z,11.15
2018-12-18T20:58:43.864Z,10.88
2018-12-18T21:01:22.062Z,20.55
2018-12-18T21:04:04.941Z,10.85
2018-12-18T21:06:42.872Z,12.28
2018-12-18T21:09:25.407Z,13.75
2018-12-18T21:14:51.391Z,12.13
2018-12-18T21:17:28.702Z,13.55
2018-12-18T21:20:04.258Z,10.40
2018-12-18T21:22:47.487Z,9.08
2018-12-18T21:25:29.908Z,11.83
2018-12-18T21:28:05.276Z,12.05
2018-12-18T21:30:48.486Z,12.60
2018-12-18T21:33:25.992Z,9.95
2018-12-18T21:36:03.275Z,12.70
2018-12-18T21:38:38.600Z,13.65
2018-12-18T21:41:13.296Z,11.53
2018-12-18T21:43:50.919Z,10.00
2018-12-18T21:46:26.357Z,16.67
2018-12-18T21:49:01.143Z,10.78
2018-12-18T21:51:36.173Z,12.95
2018-12-18T21:54:19.660Z,12.63
2018-12-18T21:57:00.876Z,14.70
2018-12-18T21:59:47.797Z,11.40
2018-12-18T22:02:22.986Z,9.85
2018-12-18T22:04:59.961Z,14.90
2018-12-18T22:07:38.691Z,10.88
2018-12-18T22:10:14.749Z,13.78
2018-12-18T22:12:55.512Z,11.65
2018-12-18T22:15:40.785Z,10.60
2018-12-18T22:18:16.020Z,11.40
2018-12-18T22:20:53.146Z,15.25
2018-12-18T22:23:42.490Z,9.68
2018-12-18T22:26:24.116Z,10.32
2018-12-18T22:29:04.895Z,12.20
2018-12-18T22:31:40.490Z,14.03
2018-12-18T22:34:16.515Z,12.07
2018-12-18T22:36:53.273Z,14.53
2018-12-18T22:39:28.973Z,11.95
2018-12-18T22:42:05.455Z,10.40
2018-12-18T22:44:41.624Z,13.65
2018-12-18T22:47:16.268Z,14.80
2018-12-18T22:49:53.501Z,11.10
2018-12-18T22:52:27.936Z,12.93
2018-12-18T22:55:02.814Z,17.92
2018-12-18T22:57:37.824Z,14.30
2018-12-18T23:00:17.858Z,14.75
2018-12-18T23:02:52.593Z,16.27
2018-12-18T23:05:28.150Z,11.85
2018-12-18T23:08:02.774Z,14.03
2018-12-18T23:10:38.206Z,15.28
2018-12-18T23:13:17.591Z,14.03
2018-12-18T23:15:54.054Z,12.00
2018-12-18T23:18:28.851Z,12.73
2018-12-18T23:21:03.744Z,15.05
2018-12-18T23:23:39.755Z,11.28
2018-12-18T23:26:18.597Z,14.20
2018-12-18T23:28:55.166Z,11.10
2018-12-18T23:31:30.167Z,10.72
2018-12-18T23:34:09.387Z,11.12
2018-12-18T23:36:46.143Z,9.15
2018-12-18T23:39:20.816Z,9.70
2018-12-18T23:41:56.775Z,11.25
2018-12-18T23:44:32.207Z,9.28
2018-12-18T23:47:10.483Z,9.55
2018-12-18T23:49:44.967Z,9.18
2018-12-18T23:52:19.892Z,8.93
2018-12-18T23:57:53.738Z,10.00
